createdAt,value
2023-02-04T00:09:27.500Z,3.53
2023-02-04T00:19:58.356Z,3.53
2023-02-04T00:30:25.862Z,3.49
2023-02-04T00:40:53.442Z,3.47
2023-02-04T00:51:20.961Z,3.47
2023-02-04T01:01:48.441Z,3.50
2023-02-04T01:12:16.041Z,3.51
2023-02-04T01:22:43.962Z,3.46
2023-02-04T01:33:11.487Z,3.47
2023-02-04T01:43:39.148Z,3.48
2023-02-04T01:54:10.536Z,3.49
2023-02-04T02:04:38.189Z,3.42
2023-02-04T02:15:06.667Z,3.34
2023-02-04T02:25:34.777Z,3.23
2023-02-04T02:36:02.634Z,2.98
2023-02-04T02:46:30.503Z,2.81
2023-02-04T02:56:59.625Z,2.69
2023-02-04T03:07:27.283Z,2.58
2023-02-04T03:17:56.728Z,2.45
2023-02-04T03:28:24.241Z,2.32
2023-02-04T03:38:54.288Z,2.28
2023-02-04T03:49:21.853Z,2.20
2023-02-04T03:59:49.743Z,2.13
2023-02-04T04:10:18.211Z,2.09
2023-02-04T04:20:45.750Z,2.01
2023-02-04T04:31:13.584Z,1.72
2023-02-04T04:41:42.152Z,1.44
2023-02-04T04:52:10.816Z,0.98
2023-02-04T05:02:36.720Z,0.72
2023-02-04T05:13:05.039Z,0.50
2023-02-04T05:23:33.671Z,0.33
2023-02-04T05:34:01.574Z,0.28
2023-02-04T05:44:29.699Z,0.26
2023-02-04T05:54:58.099Z,0.10
2023-02-04T06:05:26.240Z,-0.04
2023-02-04T06:15:54.334Z,-0.09
2023-02-04T06:26:22.406Z,-0.12
2023-02-04T06:36:50.596Z,-0.13
2023-02-04T06:47:18.337Z,-0.16
2023-02-04T06:57:46.527Z,-0.22
2023-02-04T07:08:14.869Z,-0.27
2023-02-04T07:18:43.084Z,-0.25
2023-02-04T07:29:17.485Z,-0.24
2023-02-04T07:39:49.467Z,-0.26
2023-02-04T07:50:17.672Z,-0.27
2023-02-04T08:00:45.259Z,-0.20
2023-02-04T08:11:13.783Z,-0.16
2023-02-04T08:21:41.332Z,-0.09
2023-02-04T08:32:10.228Z,-0.17
2023-02-04T08:42:37.823Z,-0.11
2023-02-04T08:53:06.053Z,-0.10
2023-02-04T09:03:34.265Z,-0.08
2023-02-04T09:14:02.588Z,-0.08
2023-02-04T09:24:30.367Z,0.07
2023-02-04T09:34:58.489Z,0.25
2023-02-04T09:45:29.762Z,0.34
2023-02-04T09:55:58.414Z,0.49
2023-02-04T10:06:27.632Z,0.39
2023-02-04T10:16:58.849Z,0.41
2023-02-04T10:27:27.184Z,0.43
2023-02-04T10:38:08.130Z,0.38
2023-02-04T10:48:43.734Z,0.41
2023-02-04T10:59:22.199Z,0.42
2023-02-04T11:09:51.190Z,0.48
2023-02-04T11:20:32.047Z,0.49
2023-02-04T11:31:04.571Z,0.54
2023-02-04T11:41:33.793Z,0.64
2023-02-04T11:52:15.212Z,0.72
2023-02-04T12:02:48.253Z,0.73
2023-02-04T12:13:23.918Z,0.68
2023-02-04T12:23:51.588Z,0.58
2023-02-04T12:34:20.028Z,0.49
2023-02-04T12:44:47.736Z,0.36
2023-02-04T12:55:15.441Z,0.32
2023-02-04T13:05:44.065Z,0.34
2023-02-04T13:16:12.779Z,0.41
2023-02-04T13:26:40.473Z,0.45
2023-02-04T13:37:08.629Z,0.38
2023-02-04T13:47:36.482Z,0.27
2023-02-04T13:58:04.711Z,0.34
2023-02-04T14:08:33.270Z,0.36
2023-02-04T14:19:00.820Z,0.30
2023-02-04T14:29:29.180Z,0.26
2023-02-04T14:39:57.257Z,0.27
2023-02-04T14:50:27.346Z,0.16
2023-02-04T15:00:55.132Z,0.14
2023-02-04T15:11:23.983Z,0.21
2023-02-04T15:21:54.112Z,0.13
2023-02-04T15:32:22.373Z,0.03
2023-02-04T15:42:54.137Z,-0.15
2023-02-04T15:53:22.153Z,-0.41
2023-02-04T16:03:50.838Z,-0.44
2023-02-04T16:14:19.153Z,-0.31
2023-02-04T16:24:49.288Z,-0.15
2023-02-04T16:35:17.624Z,-0.05
2023-02-04T16:45:46.459Z,0.07
2023-02-04T16:56:14.707Z,-0.08
2023-02-04T17:06:43.119Z,-0.21
2023-02-04T17:17:11.445Z,-0.27
2023-02-04T17:27:39.714Z,-0.34
2023-02-04T17:38:07.996Z,-0.36
2023-02-04T17:48:37.069Z,-0.40
2023-02-04T17:59:07.415Z,-0.36
2023-02-04T18:09:35.274Z,-0.20
2023-02-04T18:20:03.303Z,-0.08
2023-02-04T18:30:30.987Z,-0.11
2023-02-04T18:41:15.121Z,-0.14
2023-02-04T18:51:45.211Z,-0.17
2023-02-04T19:02:35.275Z,-0.21
2023-02-04T19:13:18.867Z,-0.28
2023-02-04T19:23:47.160Z,-0.29
2023-02-04T19:34:25.359Z,-0.29
2023-02-04T19:44:53.983Z,-0.29
2023-02-04T19:55:31.422Z,-0.35
2023-02-04T20:06:03.010Z,-0.62
2023-02-04T20:16:41.447Z,-0.71
2023-02-04T20:27:19.216Z,-0.86
2023-02-04T20:37:49.718Z,-0.89
2023-02-04T20:48:33.693Z,-0.88
2023-02-04T20:59:25.252Z,-0.99
2023-02-04T21:09:52.916Z,-1.07
2023-02-04T21:20:20.773Z,-0.97
2023-02-04T21:30:48.443Z,-0.94
2023-02-04T21:41:16.622Z,-0.97
2023-02-04T21:51:44.148Z,-0.94
2023-02-04T22:02:11.780Z,-0.93
2023-02-04T22:12:39.626Z,-1.01
2023-02-04T22:23:07.241Z,-1.00
2023-02-04T22:33:34.779Z,-0.98
2023-02-04T22:44:02.395Z,-1.02
2023-02-04T22:54:30.134Z,-1.06
2023-02-04T23:04:57.668Z,-1.07
2023-02-04T23:15:25.243Z,-1.06
2023-02-04T23:25:52.855Z,-0.95
2023-02-04T23:36:20.485Z,-0.83
2023-02-04T23:46:48.183Z,-0.80
2023-02-04T23:57:16.087Z,-0.80
